• Join FlightAware (Why Join?)
  • Login
  • US Flag 
03:25AM EST


 

Airport Tracker/Info


-or-


 

Live Flight TrackerFlight Track Log ✈ N770NC ✈ 17-Jun-2013 ✈ KATL - KORD

Flight Track Log - Related Links

Times and Time Zones

All times are in EDT time to prevent confusion due to time zone crossing. See the N770NC flight status page for this flight to view local times or setup timezone preferences in your user account.

Time Position Orientation Groundspeed Altitude Reporting Facility
EDT Latitude Longitude Course Direction KTS MPH feet Rate Location/Type
12:50PM 33.6536 -84.4806 349° North 441 507 2,200  Level Atlanta Center
12:51PM 33.6667 -84.5000 309° West 238 274 2,700 2,100 Climbing Atlanta TRACON
12:52PM 33.6833 -84.5833 284° West 273 314 5,100 2,520 Climbing Atlanta TRACON
12:53PM 34.0537 -84.5263 349° North  Level FlightAware Approximate
12:53PM 33.7667 -84.6167 342° North 275 316 7,800  Level Atlanta TRACON
12:54PM 34.1523 -84.5530 347° North  Level FlightAware Approximate
12:54PM 33.8847 -84.6069 North 304 350 10,200  Level Atlanta Center
12:55PM 34.2563 -84.5794 349° North  Level FlightAware Approximate
12:55PM 33.9831 -84.5875 North 340 391 10,900  Level Atlanta Center
12:56PM 34.3607 -84.6031 349° North  Level FlightAware Approximate
12:56PM 34.0978 -84.5831 North 366 421 12,700  Level Atlanta Center
12:57PM 34.2064 -84.5789 North 381 438 14,600 2,040 Climbing Atlanta Center
12:58PM 34.3147 -84.5972 352° North 384 442 16,800 1,980 Climbing Atlanta Center
12:59PM 34.4211 -84.6206 350° North 389 448 18,600 1,740 Climbing Atlanta Center
01:00PM 34.5294 -84.6414 351° North 389 448 20,300 1,500 Climbing Atlanta Center
01:01PM 34.6339 -84.6622 351° North 389 448 21,700 960 Climbing Atlanta Center
01:02PM 34.7297 -84.6908 346° North 389 448 22,300 600 Climbing Atlanta Center
01:03PM 34.8442 -84.7247 346° North 400 460 22,900 600 Climbing Atlanta Center
01:04PM 34.9631 -84.7611 346° North 413 475 23,600 840 Climbing Atlanta Center
01:05PM 35.0858 -84.7850 351° North 433 498 24,600 900 Climbing Atlanta Center
01:06PM 35.2067 -84.8114 350° North 438 504 25,500 780 Climbing Atlanta Center
01:07PM 35.3278 -84.8356 351° North 443 510 26,200 720 Climbing Atlanta Center
01:08PM 35.4528 -84.8572 352° North 449 517 27,000 720 Climbing Atlanta Center
01:09PM 35.5797 -84.8892 348° North 449 517 27,700 600 Climbing Atlanta Center
01:10PM 35.7047 -84.9186 349° North 449 517 28,300 720 Climbing Atlanta Center
01:11PM 35.8464 -84.9431 352° North 449 517 29,200 780 Climbing Atlanta Center
01:12PM 35.9542 -84.9653 351° North 470 541 29,800 660 Climbing Indianapolis Center
01:13PM 36.0733 -85.0025 346° North 463 533 30,500 720 Climbing Indianapolis Center
01:14PM 36.1961 -85.0425 345° North 456 525 31,300 600 Climbing Indianapolis Center
01:15PM 36.3189 -85.0767 347° North 451 519 31,800 -120 Climbing Indianapolis Center
01:16PM 36.4417 -85.1169 345° North 455 524 31,100 -720 Descending Indianapolis Center
01:17PM 36.5903 -85.1661 345° North 458 527 30,400 -540 Descending Indianapolis Center
01:18PM 36.7167 -85.2033 347° North 464 534 30,000 -240 Descending Indianapolis Center
01:19PM 36.8403 -85.2500 343° North 464 534 30,000  Level Indianapolis Center
01:20PM 36.9647 -85.2983 343° North 468 539 30,000  Level Indianapolis Center
01:21PM 37.0936 -85.3219 352° North 471 542 30,000  Level Indianapolis Center
01:22PM 37.2256 -85.3447 352° North 475 547 30,000  Level Indianapolis Center
01:23PM 37.3539 -85.3792 348° North 470 541 30,000  Level Indianapolis Center
01:24PM 37.5039 -85.4208 348° North 472 543 30,000  Level Indianapolis Center
01:25PM 37.6325 -85.4469 351° North 468 539 30,000  Level Indianapolis Center
01:26PM 37.7622 -85.4817 348° North 473 544 30,000  Level Indianapolis Center
01:27PM 37.8750 -85.5097 349° North 474 545 30,000  Level Indianapolis Center
01:29PM 38.0225 -85.5694 342° North 462 532 30,000  Level Indianapolis Center
01:30PM 38.1503 -85.5931 352° North 463 533 30,000  Level Indianapolis Center
01:31PM 38.2819 -85.5992 358° North 470 541 30,000  Level Indianapolis Center
01:32PM 38.4128 -85.6083 357° North 469 540 30,000  Level Indianapolis Center
01:33PM 38.5428 -85.6211 356° North 469 540 30,000  Level Indianapolis Center
01:34PM 38.6908 -85.6256 359° North 473 544 30,000  Level Indianapolis Center
01:35PM 38.8242 -85.6139 North 479 551 30,000  Level Indianapolis Center
01:36PM 38.9572 -85.6139 360° North 480 552 30,000  Level Indianapolis Center
01:37PM 39.0881 -85.6256 356° North 471 542 30,000 -180 Level Indianapolis Center
01:38PM 39.2175 -85.6342 357° North 469 540 29,700 -480 Descending Indianapolis Center
01:39PM 39.3500 -85.6289 North 478 550 29,100 -360 Descending Indianapolis Center
01:40PM 39.5078 -85.6236 North 476 548 29,000 -120 Descending Indianapolis Center
01:41PM 39.6364 -85.6283 358° North 468 539 28,900 -540 Descending Indianapolis Center
01:42PM 39.7639 -85.6267 North 464 534 28,000 -900 Descending Indianapolis Center
01:43PM 39.8919 -85.6219 North 464 534 27,100 -840 Descending Indianapolis Center
01:44PM 40.0214 -85.6189 North 469 540 26,300 -540 Descending Indianapolis Center
01:45PM 40.1506 -85.6322 355° North 467 537 26,000 -180 Descending Indianapolis Center
01:46PM 40.3006 -85.6458 356° North 455 524 26,000 -120 Level Indianapolis Center
01:47PM 40.4192 -85.6753 349° North 438 504 25,800 -420 Descending Indianapolis Center
01:47PM 40.4644 -85.6919 344° North 435 501 25,400 -960 Descending Chicago Center
01:48PM 40.5753 -85.7458 340° North 427 491 24,500 -720 Descending Chicago Center
01:49PM 40.7069 -85.7686 353° North 438 504 24,000 -480 Descending Chicago Center
01:51PM 40.8189 -85.8058 346° North 417 480 23,600 -540 Descending Chicago Center
01:52PM 40.9261 -85.8647 337° Northwest 417 480 23,000 -480 Descending Chicago Center
01:53PM 41.0306 -85.9253 336° Northwest 412 474 22,700 -600 Descending Chicago Center
01:54PM 41.0839 -86.0436 301° West 384 442 21,800 -1,140 Descending Chicago Center
01:55PM 41.1192 -86.1675 291° West 364 419 20,400 -1,500 Descending Chicago Center
01:56PM 41.1636 -86.3147 292° West 358 412 18,700 -1,500 Descending Chicago Center
01:57PM 41.2139 -86.4275 301° West 360 414 17,300 -1,380 Descending Chicago Center
01:58PM 41.2650 -86.5392 301° West 353 406 15,900 -1,500 Descending Chicago Center
01:59PM 41.3256 -86.6419 308° West 352 405 14,300 -1,500 Descending Chicago Center
02:00PM 41.4119 -86.6986 334° Northwest 353 406 12,900 -1,140 Descending Chicago Center
02:01PM 41.5108 -86.7156 353° North 346 398 12,000 -420 Descending Chicago Center
02:02PM 41.6025 -86.7483 345° North 343 395 12,100  Climbing Chicago Center
02:03PM 41.7094 -86.7939 342° North 340 391 12,000 -60 Descending Chicago Center
02:04PM 41.7969 -86.8414 338° Northwest 342 394 12,000  Level Chicago Center
02:05PM 41.8867 -86.8869 339° North 346 398 12,000 -420 Level Chicago Center
02:06PM 41.9467 -86.9761 312° West 347 399 11,200 -960 Descending Chicago Center
02:07PM 41.9678 -87.0953 283° West 334 384 10,100 -720 Descending Chicago Center
02:08PM 41.9844 -87.2339 279° West 322 371 9,800 -840 Descending Chicago Center
02:09PM 41.9833 -87.3536 269° West 322 371 8,400 -1,260 Descending Chicago Center
02:10PM 41.9825 -87.4586 269° West 293 337 7,200 -1,440 Descending Chicago Center
02:11PM 41.9819 -87.5469 270° West 244 281 5,500 -1,440 Descending Chicago Center
02:12PM 41.9847 -87.6333 273° West 234 269 4,300 -1,200 Descending Chicago Center